Tara Lynn II — WDG5016 — position and weather

sailwx.info

Track history (hours):
 
Tides and Currents Weather Stations Pressure Air Temp Water Temp Dewpoint Dewpoint Depression Visibility Wind Speed Wind Dir Waves Ship Positions

Tara Lynn II

Owner: Osier Seafood, Inc., So. Bristol, ME. More information available from US FCC via Universal Licensing System and Coast Guard Vessel Documentation Center.

Last reported at 2018-Jun-23 20:30 UTC. Time now 2018-Jun-24 22:03 UTC.
Position N 43°27' W 069°10'.

Length 17 m.

Type: Fishing. MMSI: 367530120.

Date/timePositionNaut miles runAvg speedWind from/ knotsBaromVisibWave heightAir tempDewpointWater temp
2018-Jun-23 20:30N 43°27' W 069°10'1 0.1
2018-Jun-23 16:28N 43°27' W 069°09'5 2.7
2018-Jun-23 14:36N 43°24' W 069°03'1 2.4
2018-Jun-23 14:18N 43°24' W 069°02'  
2018-Jun-19 22:54N 43°32' W 069°54'3 6.7
2018-Jun-19 22:30N 43°33' W 069°58'3 6.8
2018-Jun-19 22:00N 43°34' W 070°02'3 6.9
2018-Jun-19 21:30N 43°35' W 070°06'3 6.9
2018-Jun-19 21:00N 43°37' W 070°11'4 7.2
2018-Jun-19 20:30N 43°39' W 070°14'1 2.0
2018-Jun-19 20:00N 43°39' W 070°15'0 0.2
2018-Jun-19 19:29N 43°39' W 070°15'  
Track history (hours):
 
Tides and Currents Weather Stations Pressure Air Temp Water Temp Dewpoint Dewpoint Depression Visibility Wind Speed Wind Dir Waves Ship Positions

Tara Lynn II

Owner: Osier Seafood, Inc., So. Bristol, ME. More information available from US FCC via Universal Licensing System and Coast Guard Vessel Documentation Center.

Last reported at 2018-Jun-23 20:30 UTC. Time now 2018-Jun-24 22:03 UTC.
Position N 43°27' W 069°10'.

Length 17 m.

Type: Fishing. MMSI: 367530120.

Date/timePositionNaut miles runAvg speedWind from/ knotsBaromVisibWave heightAir tempDewpointWater temp
2018-Jun-23 20:30N 43°27' W 069°10'1 0.1
2018-Jun-23 16:28N 43°27' W 069°09'5 2.7
2018-Jun-23 14:36N 43°24' W 069°03'1 2.4
2018-Jun-23 14:18N 43°24' W 069°02'  
2018-Jun-19 22:54N 43°32' W 069°54'3 6.7
2018-Jun-19 22:30N 43°33' W 069°58'3 6.8
2018-Jun-19 22:00N 43°34' W 070°02'3 6.9
2018-Jun-19 21:30N 43°35' W 070°06'3 6.9
2018-Jun-19 21:00N 43°37' W 070°11'4 7.2
2018-Jun-19 20:30N 43°39' W 070°14'1 2.0
2018-Jun-19 20:00N 43°39' W 070°15'0 0.2
2018-Jun-19 19:29N 43°39' W 070°15'  

Dump ship's entire track history